Airfield :
LOGIN :

Register | Disclaimer

   EN    FR    IT 

 










Legend :    VFR   Marginal VFR   IFR   Intensive IFR   Very Intensive IFR
Visi :
Ceiling :
>= 8 km
>= 3000ft
5 to 8 km
1000 to 3000 ft
1500m to 5 km
500 to 1000 ft
800 to 1500m
200 to 500 ft
< 800m
< 200 ft
Symbols :   Thunderstorms  Fog  Heavy snow  Heavy precipitations  Wind > 20 kt
SIGMETs :     Misc.  Thunderstorms  Icing  Turbulence  Mountain Waves  Volcanic Ashes







- Airport Elevation : 30 ft
- IATA code : CFN


EIDL - Donegal

CURRENT METAR :
  • 171500Z 29008KT 9999 OVC047 16/09 Q1013

EXPIRED METARs :
  • 171430Z 27009KT 9999 FEW044 16/09 Q1013
  • 171400Z 29008KT 9999 FEW029 16/09 Q1013
  • 171330Z VRB06KT 9999 FEW024 BKN033 16/09 Q1013
  • 171300Z 14004KT 110V170 9999 FEW027 15/10 Q1013
  • 171230Z 23005KT 9999 -RA FEW025 OVC033 14/12 Q1014 RERA

TAF TAF EIDL
Valid from the 17 at 15:00 until the 17 at 21:00 UTC


171400Z 1715/1721 28008KT 9999 SCT040
TEMPO 1715/1718 -SHRA SCT020CB
No reported NOTAMs for that airfield.



MET'MAP, your aeronautical weather chart ! - Copyright ORBIFLY December 2007 - Disclaimer

ORBIFLY MET'MAP TEAM :

Programming & Development : Alexandra Zaïnal
Concept & Development : Baudouin d'Aumeries
Co-Development & Prog : Marc-Olivier Méhu
Technical & hardware support : Manuel Goepfert

Contact : metmap@orbifly.com




SOURCES & CREDITS :

   NOAA